Time;durP1;ratioP1;P1;durP2;ratioP2;P2;SDS_P1;SDS_P2;PMS_P1;PMS_P2;Temp;Humidity;BMP_temperature;BMP_pressure;BME280_temperature;BME280_humidity;BME280_pressure;Samples;Min_cycle;Max_cycle;Signal;HPM_P1;HPM_P2
2023/03/16 00:01:13;;;;;;;35.80;17.40;;;;;;;0.34;68.36;100258.84;104846;1251;109171;-71
2023/03/16 00:03:43;;;;;;;36.50;16.20;;;;;;;0.32;68.39;100257.63;103773;1253;138652;-70
2023/03/16 00:06:31;;;;;;;32.90;15.80;;;;;;;0.29;68.35;100257.79;103344;1248;107722;-70
2023/03/16 00:09:18;;;;;;;33.20;15.40;;;;;;;0.25;68.29;100258.77;103198;1253;138748;-70
2023/03/16 00:12:07;;;;;;;34.80;15.90;;;;;;;0.21;68.46;100261.30;104231;1249;110280;-71
2023/03/16 00:14:56;;;;;;;33.30;16.70;;;;;;;0.19;68.42;100265.38;103780;1253;138694;-72
2023/03/16 00:17:33;;;;;;;32.80;16.50;;;;;;;0.16;68.52;100265.86;103302;1253;97804;-71
2023/03/16 00:20:21;;;;;;;37.20;16.60;;;;;;;0.14;68.55;100266.85;103284;1249;107628;-70
2023/03/16 00:22:58;;;;;;;34.40;15.80;;;;;;;0.12;68.64;100273.69;103202;1250;138605;-70
2023/03/16 00:25:45;;;;;;;34.80;16.50;;;;;;;0.10;68.64;100274.69;103322;1250;113498;-71
2023/03/16 00:28:34;;;;;;;32.30;15.50;;;;;;;0.07;68.60;100276.20;103153;1253;138405;-71
2023/03/16 00:31:13;;;;;;;32.60;16.50;;;;;;;0.06;68.64;100283.02;103329;1250;97877;-71
2023/03/16 00:34:01;;;;;;;31.10;15.60;;;;;;;0.04;68.67;100282.67;103205;1251;138283;-71
2023/03/16 00:36:37;;;;;;;32.00;16.10;;;;;;;0.01;68.79;100287.75;103256;1250;97878;-71
2023/03/16 00:39:10;;;;;;;33.20;15.80;;;;;;;-0.02;68.87;100287.02;103190;1253;138484;-71
2023/03/16 00:41:58;;;;;;;30.70;15.80;;;;;;;-0.05;68.81;100286.48;103309;1253;107222;-70
2023/03/16 00:44:46;;;;;;;31.50;16.00;;;;;;;-0.06;68.76;100293.84;103323;1250;98396;-71
2023/03/16 00:47:34;;;;;;;32.20;15.20;;;;;;;-0.06;68.96;100294.34;103403;1251;111315;-70
2023/03/16 00:50:22;;;;;;;35.40;14.80;;;;;;;-0.08;68.78;100295.17;103263;1252;97784;-71
2023/03/16 00:52:52;;;;;;;36.50;15.40;;;;;;;-0.09;68.92;100291.92;103239;1250;138505;-72
2023/03/16 00:55:38;;;;;;;29.80;14.90;;;;;;;-0.11;68.97;100288.83;103314;1253;107796;-71
2023/03/16 00:58:18;;;;;;;30.30;14.50;;;;;;;-0.12;68.95;100290.36;103208;1250;138692;-72
2023/03/16 01:01:07;;;;;;;27.80;14.40;;;;;;;-0.15;68.96;100292.03;103299;1248;107835;-71
2023/03/16 01:03:45;;;;;;;37.70;15.00;;;;;;;-0.17;68.98;100293.55;103839;1247;138863;-72
2023/03/16 01:06:33;;;;;;;30.20;14.70;;;;;;;-0.19;69.09;100292.98;103386;1251;110912;-71
2023/03/16 01:09:12;;;;;;;31.90;15.10;;;;;;;-0.21;69.16;100292.27;99179;1251;5369657;-72
2023/03/16 01:11:53;;;;;;;32.90;15.90;;;;;;;-0.24;69.28;100292.08;103362;1249;97673;-71
2023/03/16 01:14:34;;;;;;;30.60;14.60;;;;;;;-0.26;69.21;100295.98;103294;1250;107970;-72
2023/03/16 01:17:22;;;;;;;29.70;14.60;;;;;;;-0.29;69.41;100300.05;103268;1253;97796;-72
2023/03/16 01:19:52;;;;;;;33.30;16.10;;;;;;;-0.32;69.39;100302.59;103245;1250;111207;-71
2023/03/16 01:22:32;;;;;;;28.20;14.90;;;;;;;-0.34;69.45;100301.54;103170;1253;138795;-72
2023/03/16 01:25:20;;;;;;;35.90;15.70;;;;;;;-0.36;69.64;100307.98;103342;1250;99499;-72
2023/03/16 01:28:00;;;;;;;34.80;15.20;;;;;;;-0.39;69.75;100303.15;103186;1251;139584;-72
2023/03/16 01:30:46;;;;;;;32.90;15.30;;;;;;;-0.40;69.82;100306.56;103325;1253;97790;-72
2023/03/16 01:33:35;;;;;;;31.10;14.60;;;;;;;-0.43;69.68;100309.27;103189;1253;138767;-72
2023/03/16 01:36:22;;;;;;;29.40;14.30;;;;;;;-0.47;69.92;100312.47;102527;1248;1003541;-72
2023/03/16 01:39:12;;;;;;;28.10;14.50;;;;;;;-0.48;70.11;100312.95;103136;1250;139352;-72
2023/03/16 01:41:44;;;;;;;35.90;15.80;;;;;;;-0.50;70.23;100316.87;103181;1254;109292;-72
2023/03/16 01:44:29;;;;;;;39.00;15.40;;;;;;;-0.51;70.42;100314.63;103217;1250;97681;-71
2023/03/16 01:47:13;;;;;;;34.70;15.30;;;;;;;-0.51;70.43;100316.16;103182;1253;138286;-72
2023/03/16 01:49:56;;;;;;;30.80;14.60;;;;;;;-0.53;70.42;100319.03;103290;1249;107175;-72
2023/03/16 01:52:32;;;;;;;32.00;14.50;;;;;;;-0.55;70.42;100315.56;103128;1251;139128;-72
2023/03/16 01:55:06;;;;;;;29.80;14.60;;;;;;;-0.56;70.72;100320.34;103279;1250;107909;-72
2023/03/16 01:57:54;;;;;;;30.50;14.10;;;;;;;-0.58;70.66;100318.11;103194;1250;138603;-72
2023/03/16 02:00:44;;;;;;;30.70;14.30;;;;;;;-0.59;70.54;100318.27;103266;1250;111268;-72
2023/03/16 02:03:33;;;;;;;28.40;13.90;;;;;;;-0.61;70.75;100319.09;103129;1251;138900;-70
2023/03/16 02:06:22;;;;;;;29.60;13.60;;;;;;;-0.63;70.79;100318.73;103336;1250;98472;-72
2023/03/16 02:09:10;;;;;;;31.90;14.10;;;;;;;-0.64;70.74;100317.52;103201;1249;139066;-72
2023/03/16 02:11:58;;;;;;;28.00;13.40;;;;;;;-0.67;70.85;100312.70;103310;1250;97777;-71
2023/03/16 02:14:47;;;;;;;27.20;13.30;;;;;;;-0.68;71.08;100316.11;103185;1253;111568;-70
2023/03/16 02:17:36;;;;;;;26.30;14.00;;;;;;;-0.70;71.04;100319.15;103232;1250;108632;-71
2023/03/16 02:20:32;;;;;;;28.50;13.10;;;;;;;-0.70;71.28;100321.89;103278;1253;97793;-70
2023/03/16 02:23:23;;;;;;;26.40;12.70;;;;;;;-0.69;71.30;100326.50;103207;1250;138875;-71
2023/03/16 02:26:18;;;;;;;30.90;14.50;;;;;;;-0.69;71.33;100322.23;103257;1250;97711;-71
2023/03/16 02:29:20;;;;;;;27.90;13.60;;;;;;;-0.71;71.38;100323.92;103139;1252;138790;-71
2023/03/16 02:32:01;;;;;;;32.40;14.20;;;;;;;-0.71;71.54;100323.40;103267;1249;105622;-71
2023/03/16 02:34:35;;;;;;;30.00;13.80;;;;;;;-0.71;71.71;100323.40;103074;1248;138856;-71
2023/03/16 02:37:22;;;;;;;31.30;13.80;;;;;;;-0.71;71.73;100333.82;103327;1251;107794;-71
2023/03/16 02:40:23;;;;;;;30.60;14.70;;;;;;;-0.72;71.81;100336.34;103217;1247;138728;-71
2023/03/16 02:43:05;;;;;;;32.00;14.80;;;;;;;-0.71;71.89;100341.52;103320;1253;110356;-70
2023/03/16 02:45:48;;;;;;;30.10;15.10;;;;;;;-0.70;72.14;100344.77;103174;1253;138968;-70
2023/03/16 02:48:42;;;;;;;31.20;14.80;;;;;;;-0.72;72.16;100347.46;103380;1253;98306;-70
2023/03/16 02:51:31;;;;;;;28.30;14.80;;;;;;;-0.73;72.12;100349.64;103214;1250;138813;-71
2023/03/16 02:54:18;;;;;;;32.90;15.20;;;;;;;-0.75;72.25;100357.80;103279;1253;97790;-71
2023/03/16 02:57:06;;;;;;;32.80;16.20;;;;;;;-0.76;72.35;100361.89;103205;1250;138955;-71
2023/03/16 02:59:54;;;;;;;37.30;16.50;;;;;;;-0.77;72.52;100363.41;102722;1251;1002991;-70
2023/03/16 03:02:34;;;;;;;35.60;17.20;;;;;;;-0.78;72.55;100362.55;103391;1249;97893;-72
2023/03/16 03:05:13;;;;;;;35.80;17.50;;;;;;;-0.82;72.77;100363.36;104539;1250;140221;-70
2023/03/16 03:07:45;;;;;;;33.10;17.60;;;;;;;-0.82;72.74;100368.64;103254;1248;97857;-70
2023/03/16 03:10:33;;;;;;;32.80;17.40;;;;;;;-0.83;73.21;100369.30;103254;1250;138642;-71
2023/03/16 03:13:20;;;;;;;34.50;17.40;;;;;;;-0.86;72.96;100366.70;104547;1250;109684;-70
2023/03/16 03:16:10;;;;;;;36.50;17.60;;;;;;;-0.89;73.09;100367.17;103621;1250;139148;-71
2023/03/16 03:18:57;;;;;;;37.10;17.90;;;;;;;-0.91;73.26;100370.53;104818;1253;108416;-71
2023/03/16 03:21:45;;;;;;;43.00;18.40;;;;;;;-0.91;73.31;100371.89;103204;1253;139070;-71
2023/03/16 03:24:14;;;;;;;43.80;18.80;;;;;;;-0.93;73.49;100382.44;103340;1247;112663;-71
2023/03/16 03:26:43;;;;;;;42.90;19.10;;;;;;;-0.93;73.45;100383.48;103294;1251;107622;-71
2023/03/16 03:29:24;;;;;;;42.20;19.40;;;;;;;-0.93;73.57;100388.42;103322;1249;139180;-70
2023/03/16 03:31:55;;;;;;;35.80;18.70;;;;;;;-0.94;73.89;100390.46;103158;1254;107172;-71
2023/03/16 03:34:43;;;;;;;38.60;18.60;;;;;;;-0.95;73.88;100394.19;103912;1250;138792;-71
2023/03/16 03:37:30;;;;;;;40.60;18.90;;;;;;;-0.98;74.00;100396.70;104871;1250;113498;-71
2023/03/16 03:40:19;;;;;;;37.70;17.60;;;;;;;-1.01;74.16;100399.56;103194;1250;138785;-70
2023/03/16 03:43:07;;;;;;;41.30;18.40;;;;;;;-1.04;74.00;100401.40;103341;1253;97784;-70
2023/03/16 03:45:36;;;;;;;40.50;17.60;;;;;;;-1.05;74.07;100404.10;103188;1250;139921;-70
2023/03/16 03:48:23;;;;;;;39.90;18.60;;;;;;;-1.06;74.41;100405.30;103275;1248;99220;-70
2023/03/16 03:50:55;;;;;;;33.50;18.10;;;;;;;-1.06;74.24;100404.60;103235;1253;111193;-70
2023/03/16 03:53:42;;;;;;;35.30;17.80;;;;;;;-1.07;74.49;100412.77;103281;1250;108057;-71
2023/03/16 03:56:36;;;;;;;37.70;17.20;;;;;;;-1.08;74.36;100416.66;103197;1251;97756;-71
2023/03/16 03:59:14;;;;;;;35.10;18.10;;;;;;;-1.10;74.42;100419.52;103191;1250;138649;-72
2023/03/16 04:02:16;;;;;;;33.80;18.60;;;;;;;-1.09;74.93;100421.93;102390;1259;1003699;-72
2023/03/16 04:05:11;;;;;;;37.80;17.80;;;;;;;-1.10;74.64;100419.52;104599;1250;139069;-71
2023/03/16 04:07:38;;;;;;;36.20;18.30;;;;;;;-1.11;74.78;100424.29;104601;1250;107037;-72
2023/03/16 04:10:27;;;;;;;34.80;17.20;;;;;;;-1.12;75.00;100422.73;103084;1250;138906;-72
2023/03/16 04:12:59;;;;;;;33.70;18.10;;;;;;;-1.15;74.71;100424.56;103173;1251;109958;-71
2023/03/16 04:15:31;;;;;;;33.20;17.50;;;;;;;-1.15;74.99;100427.81;103097;1250;139080;-71
2023/03/16 04:18:25;;;;;;;36.20;19.30;;;;;;;-1.16;75.26;100430.01;102478;1256;1003220;-71
2023/03/16 04:21:16;;;;;;;38.60;18.90;;;;;;;-1.15;75.35;100435.48;103063;1249;139133;-71
2023/03/16 04:24:04;;;;;;;37.50;19.00;;;;;;;-1.14;75.28;100432.25;103190;1254;97790;-71
2023/03/16 04:26:53;;;;;;;36.40;18.40;;;;;;;-1.15;75.25;100432.75;103171;1251;109205;-71
2023/03/16 04:29:21;;;;;;;34.70;18.20;;;;;;;-1.17;75.45;100436.64;103064;1254;138946;-71
2023/03/16 04:31:52;;;;;;;40.30;19.50;;;;;;;-1.19;75.32;100434.39;103198;1254;112093;-71
2023/03/16 04:34:23;;;;;;;35.60;19.10;;;;;;;-1.20;75.38;100436.59;103481;1253;139303;-70
2023/03/16 04:37:06;;;;;;;40.80;20.10;;;;;;;-1.21;75.60;100431.82;103922;1250;96845;-70
2023/03/16 04:39:44;;;;;;;35.50;19.30;;;;;;;-1.22;75.43;100432.30;103064;1254;139534;-72
2023/03/16 04:42:21;;;;;;;43.60;21.40;;;;;;;-1.23;75.59;100436.73;103450;1253;97884;-70
2023/03/16 04:45:11;;;;;;;38.70;19.80;;;;;;;-1.22;75.66;100438.44;104526;1253;110589;-70
2023/03/16 04:47:58;;;;;;;41.60;19.60;;;;;;;-1.23;75.75;100438.59;104637;1249;108635;-70
2023/03/16 04:50:47;;;;;;;37.70;19.80;;;;;;;-1.19;75.57;100445.48;103233;1254;97784;-70
2023/03/16 04:53:28;;;;;;;42.00;20.50;;;;;;;-1.16;75.83;100453.54;103032;1250;138528;-70
2023/03/16 04:56:01;;;;;;;41.20;20.80;;;;;;;-1.17;75.69;100453.20;103244;1253;97800;-70
2023/03/16 04:58:49;;;;;;;34.60;19.40;;;;;;;-1.16;75.82;100456.63;104372;1250;138659;-71
2023/03/16 05:01:27;;;;;;;36.80;19.80;;;;;;;-1.15;75.74;100460.73;103150;1249;106794;-71
2023/03/16 05:04:01;;;;;;;43.10;20.80;;;;;;;-1.12;75.89;100466.59;103078;1251;138833;-71
2023/03/16 05:06:48;;;;;;;42.10;20.00;;;;;;;-1.10;75.82;100466.11;103152;1253;106734;-71
2023/03/16 05:09:26;;;;;;;43.40;21.10;;;;;;;-1.04;75.77;100468.98;103099;1250;138994;-71
2023/03/16 05:12:04;;;;;;;39.70;20.60;;;;;;;-0.97;75.84;100468.76;103243;1250;111992;-71
2023/03/16 05:14:42;;;;;;;44.30;19.80;;;;;;;-0.86;75.87;100469.63;104330;1250;108724;-71
2023/03/16 05:17:24;;;;;;;37.60;18.50;;;;;;;-0.68;75.64;100471.14;104537;1250;139174;-71
2023/03/16 05:19:51;;;;;;;40.00;19.70;;;;;;;-0.39;75.04;100465.46;103752;1254;107719;-71
2023/03/16 05:22:19;;;;;;;33.80;18.50;;;;;;;0.05;74.82;100462.85;103838;1250;139188;-71
2023/03/16 05:25:22;;;;;;;34.50;18.40;;;;;;;0.61;74.59;100466.66;103112;1253;110860;-74
2023/03/16 05:28:09;;;;;;;35.60;18.30;;;;;;;0.86;73.87;100468.13;103080;1250;138550;-70
2023/03/16 05:30:57;;;;;;;35.10;18.30;;;;;;;1.06;73.46;100469.36;103441;1250;98455;-71
2023/03/16 05:33:37;;;;;;;34.50;18.10;;;;;;;1.37;72.92;100470.15;103084;1251;138520;-70
2023/03/16 05:36:17;;;;;;;28.70;17.10;;;;;;;1.75;71.89;100475.09;103172;1253;97784;-70
2023/03/16 05:38:57;;;;;;;34.40;17.20;;;;;;;2.39;70.99;100474.44;103310;1253;112250;-70
2023/03/16 05:41:41;;;;;;;30.00;16.80;;;;;;;3.29;69.09;100477.80;103122;1253;107259;-71
2023/03/16 05:44:44;;;;;;;34.10;17.00;;;;;;;4.21;67.10;100474.12;102792;1259;97846;-72
2023/03/16 05:47:28;;;;;;;30.90;17.10;;;;;;;4.97;65.11;100472.41;104096;1256;139238;-72
2023/03/16 05:49:56;;;;;;;27.60;15.60;;;;;;;5.84;63.70;100463.13;103940;1256;95895;-72
2023/03/16 05:52:32;;;;;;;30.00;15.90;;;;;;;7.04;62.54;100470.73;102663;1256;138517;-72
2023/03/16 05:55:04;;;;;;;26.10;15.80;;;;;;;8.35;61.38;100460.90;102602;1259;108483;-74
2023/03/16 05:57:32;;;;;;;29.10;15.70;;;;;;;9.55;59.48;100456.69;102715;1257;138742;-71
2023/03/16 06:00:00;;;;;;;24.20;15.70;;;;;;;10.74;57.81;100458.04;102808;1257;108828;-70
2023/03/16 06:02:38;;;;;;;29.70;15.50;;;;;;;11.83;55.62;100451.11;102784;1256;97672;-73
2023/03/16 06:05:07;;;;;;;26.60;16.30;;;;;;;12.78;54.65;100449.95;102678;1259;138034;-69
2023/03/16 06:07:37;;;;;;;27.10;16.10;;;;;;;13.63;52.74;100452.17;102608;1261;108597;-71
2023/03/16 06:10:06;;;;;;;25.90;15.40;;;;;;;14.30;50.99;100453.89;102523;1262;138210;-71
2023/03/16 06:12:34;;;;;;;26.40;15.60;;;;;;;14.99;49.48;100455.27;102741;1259;107153;-69
2023/03/16 06:15:02;;;;;;;25.40;16.40;;;;;;;15.70;47.80;100448.01;102804;1256;97904;-70
2023/03/16 06:17:29;;;;;;;22.90;15.10;;;;;;;16.38;46.92;100448.85;102757;1255;139075;-69
2023/03/16 06:19:57;;;;;;;28.90;15.60;;;;;;;17.11;45.98;100447.05;104379;1252;107273;-70
2023/03/16 06:22:24;;;;;;;27.60;15.90;;;;;;;17.89;45.24;100446.63;103338;1250;138346;-72
2023/03/16 06:24:51;;;;;;;24.90;14.80;;;;;;;18.69;44.06;100446.10;103408;1253;108603;-70
2023/03/16 06:27:20;;;;;;;22.60;15.60;;;;;;;19.46;42.70;100444.91;103041;1250;138387;-70
2023/03/16 06:29:58;;;;;;;24.30;15.30;;;;;;;20.31;41.51;100440.17;103155;1252;110609;-71
2023/03/16 06:32:25;;;;;;;22.50;15.00;;;;;;;21.10;40.56;100443.08;103089;1255;105931;-71
2023/03/16 06:34:53;;;;;;;26.50;15.10;;;;;;;21.75;39.31;100438.80;103088;1254;138087;-70
2023/03/16 06:37:21;;;;;;;23.30;15.10;;;;;;;22.37;38.47;100442.89;103149;1256;107669;-70
2023/03/16 06:39:48;;;;;;;25.60;15.00;;;;;;;22.67;37.19;100441.95;103122;1250;139243;-70
2023/03/16 06:42:16;;;;;;;22.90;15.00;;;;;;;23.03;36.36;100440.83;103291;1250;111298;-70
2023/03/16 06:44:44;;;;;;;22.70;15.20;;;;;;;23.21;35.06;100437.05;103639;1249;106948;-70
2023/03/16 06:47:12;;;;;;;22.70;15.30;;;;;;;23.45;34.74;100437.41;103148;1255;138475;-69
2023/03/16 06:49:39;;;;;;;22.20;14.70;;;;;;;23.88;34.06;100440.72;103209;1250;107978;-70
2023/03/16 06:52:14;;;;;;;26.60;15.30;;;;;;;24.33;33.64;100447.48;103109;1255;138168;-71
2023/03/16 06:54:42;;;;;;;23.10;15.70;;;;;;;24.96;33.27;100448.02;103158;1253;111509;-69
2023/03/16 06:57:10;;;;;;;20.70;14.50;;;;;;;25.08;32.05;100450.49;103081;1250;108098;-70
2023/03/16 06:59:37;;;;;;;23.10;14.70;;;;;;;24.95;32.07;100445.98;103101;1250;138574;-73
2023/03/16 07:02:07;;;;;;;23.50;15.60;;;;;;;25.14;31.14;100456.44;103232;1250;108930;-72
2023/03/16 07:04:34;;;;;;;24.00;16.00;;;;;;;25.17;30.49;100459.31;103148;1250;138050;-73
2023/03/16 07:07:01;;;;;;;23.10;15.60;;;;;;;25.23;30.04;100463.39;103277;1252;111541;-70
2023/03/16 07:09:30;;;;;;;22.20;14.90;;;;;;;25.48;29.85;100470.93;103038;1255;138535;-72
2023/03/16 07:11:58;;;;;;;24.20;14.90;;;;;;;25.61;29.04;100468.83;103221;1253;98098;-73
2023/03/16 07:14:25;;;;;;;22.10;15.00;;;;;;;25.70;29.34;100470.36;103272;1250;107598;-73
2023/03/16 07:16:53;;;;;;;22.00;14.90;;;;;;;25.81;28.55;100472.38;104681;1253;138090;-74
2023/03/16 07:19:22;;;;;;;25.20;15.80;;;;;;;25.88;28.39;100472.81;104434;1250;111064;-75
2023/03/16 07:21:50;;;;;;;23.10;15.30;;;;;;;25.97;28.33;100477.33;103017;1250;138284;-71
2023/03/16 07:24:18;;;;;;;22.90;14.80;;;;;;;26.13;28.13;100477.92;103310;1253;97855;-73
2023/03/16 07:26:46;;;;;;;25.00;16.40;;;;;;;26.32;27.71;100473.33;103200;1250;108740;-73
2023/03/16 07:29:20;;;;;;;24.20;16.20;;;;;;;26.54;27.86;100476.58;103064;1256;138360;-74
2023/03/16 07:31:49;;;;;;;26.80;15.90;;;;;;;26.66;26.93;100478.08;103048;1251;111304;-75
2023/03/16 07:34:18;;;;;;;22.10;15.30;;;;;;;26.64;27.00;100481.89;102982;1256;138543;-75
2023/03/16 07:36:51;;;;;;;23.50;15.90;;;;;;;26.70;26.76;100478.63;103090;1256;97808;-73
2023/03/16 07:39:20;;;;;;;22.90;14.70;;;;;;;26.45;26.28;100478.55;103042;1250;139559;-73
2023/03/16 07:41:50;;;;;;;24.10;15.60;;;;;;;26.27;26.31;100481.24;103169;1253;97806;-73
2023/03/16 07:44:26;;;;;;;22.40;15.30;;;;;;;26.19;25.57;100481.33;103184;1253;111314;-72
2023/03/16 07:46:54;;;;;;;23.20;15.40;;;;;;;25.81;25.66;100482.91;102975;1255;138283;-75
2023/03/16 07:49:23;;;;;;;24.60;16.00;;;;;;;25.63;25.99;100486.98;103170;1250;97808;-73
2023/03/16 07:51:51;;;;;;;23.90;16.70;;;;;;;25.57;25.63;100490.02;103003;1255;139688;-71
2023/03/16 07:54:20;;;;;;;23.80;15.60;;;;;;;25.34;25.96;100489.85;103199;1247;97893;-72
2023/03/16 07:56:47;;;;;;;24.70;16.80;;;;;;;25.31;26.08;100492.89;103261;1250;111442;-71
2023/03/16 07:59:27;;;;;;;23.10;15.90;;;;;;;25.59;26.29;100492.02;103195;1253;140635;-71
2023/03/16 08:01:55;;;;;;;25.10;16.60;;;;;;;25.80;26.00;100488.25;103224;1253;97667;-71
2023/03/16 08:04:22;;;;;;;19.90;14.10;;;;;;;25.91;25.75;100487.86;103040;1254;139273;-70
2023/03/16 08:06:51;;;;;;;21.60;14.50;;;;;;;25.95;25.57;100486.05;103123;1256;97871;-71
2023/03/16 08:09:20;;;;;;;21.30;14.20;;;;;;;25.95;25.50;100485.75;103034;1251;138203;-71
2023/03/16 08:11:47;;;;;;;24.20;14.60;;;;;;;26.04;25.89;100485.06;103033;1254;105823;-70
2023/03/16 08:14:14;;;;;;;29.30;16.00;;;;;;;26.23;25.01;100488.04;103152;1250;97698;-71
2023/03/16 08:16:58;;;;;;;22.60;14.90;;;;;;;26.18;25.32;100488.89;103121;1250;137984;-71
2023/03/16 08:19:26;;;;;;;27.00;16.70;;;;;;;26.25;25.20;100491.21;103111;1251;97819;-71
2023/03/16 08:21:54;;;;;;;23.80;16.20;;;;;;;26.25;25.33;100492.01;103015;1250;138188;-71
2023/03/16 08:24:32;;;;;;;23.10;15.50;;;;;;;26.20;25.20;100496.13;103189;1251;110289;-72
2023/03/16 08:27:00;;;;;;;20.10;13.80;;;;;;;26.20;24.92;100497.11;103138;1251;97896;-71
2023/03/16 08:29:29;;;;;;;20.50;14.00;;;;;;;26.15;25.26;100496.41;103183;1249;139997;-70
2023/03/16 08:31:57;;;;;;;21.30;13.90;;;;;;;26.11;24.97;100500.76;103256;1253;97648;-72
2023/03/16 08:34:30;;;;;;;23.60;14.60;;;;;;;25.96;24.98;100499.48;103092;1253;137938;-71
2023/03/16 08:36:59;;;;;;;22.50;14.60;;;;;;;25.98;25.14;100498.73;103229;1253;107757;-71
2023/03/16 08:39:26;;;;;;;20.20;14.50;;;;;;;25.96;24.62;100502.20;103136;1253;138423;-71
2023/03/16 08:41:54;;;;;;;23.30;15.20;;;;;;;25.69;24.97;100507.17;103166;1250;108551;-70
2023/03/16 08:44:43;;;;;;;17.50;13.60;;;;;;;25.57;24.88;100511.95;103193;1251;97762;-70
2023/03/16 08:47:11;;;;;;;20.50;13.10;;;;;;;25.29;25.01;100513.29;103102;1250;138442;-70
2023/03/16 08:49:40;;;;;;;17.00;12.00;;;;;;;25.36;25.17;100513.38;103132;1255;108848;-71
2023/03/16 08:52:11;;;;;;;21.60;13.00;;;;;;;25.45;24.96;100515.02;103067;1251;138193;-70
2023/03/16 08:54:40;;;;;;;18.40;12.90;;;;;;;25.37;24.97;100515.36;103246;1253;107012;-70
2023/03/16 08:57:20;;;;;;;18.90;12.70;;;;;;;25.28;25.07;100519.16;103111;1254;139299;-70
2023/03/16 08:59:47;;;;;;;18.70;11.60;;;;;;;25.32;25.11;100524.36;103204;1253;110693;-70
2023/03/16 09:02:15;;;;;;;18.10;12.10;;;;;;;25.18;24.97;100527.01;103125;1253;107373;-71
2023/03/16 09:04:43;;;;;;;16.00;11.50;;;;;;;25.05;25.06;100527.71;103116;1251;138117;-71
2023/03/16 09:07:11;;;;;;;16.20;10.80;;;;;;;24.97;25.27;100529.92;103196;1250;109913;-71
2023/03/16 09:09:39;;;;;;;17.10;10.10;;;;;;;25.04;25.48;100531.13;104719;1250;138639;-71
2023/03/16 09:12:07;;;;;;;15.30;9.40;;;;;;;25.10;25.19;100534.55;104765;1248;112203;-70
2023/03/16 09:14:37;;;;;;;12.30;8.50;;;;;;;25.04;25.03;100529.75;104488;1253;109073;-70
2023/03/16 09:17:06;;;;;;;12.00;7.50;;;;;;;24.63;24.62;100525.27;103027;1250;138036;-69
2023/03/16 09:19:34;;;;;;;11.30;7.00;;;;;;;24.47;24.93;100524.14;103171;1248;107981;-71
2023/03/16 09:22:18;;;;;;;15.00;8.50;;;;;;;24.56;25.04;100529.60;102992;1256;138748;-69
2023/03/16 09:24:46;;;;;;;16.00;8.70;;;;;;;24.46;25.29;100532.80;103120;1250;111124;-70
2023/03/16 09:27:14;;;;;;;14.30;10.00;;;;;;;24.58;25.27;100529.23;103211;1253;108869;-70
2023/03/16 09:29:42;;;;;;;14.70;9.10;;;;;;;24.37;24.61;100528.63;104762;1250;96298;-70
2023/03/16 09:32:10;;;;;;;14.30;8.50;;;;;;;24.08;25.25;100530.83;104211;1253;109058;-70
2023/03/16 09:34:38;;;;;;;13.60;8.90;;;;;;;24.32;25.40;100526.37;103114;1254;138023;-70
2023/03/16 09:37:05;;;;;;;16.40;8.80;;;;;;;23.92;25.29;100534.81;103221;1253;112601;-70
2023/03/16 09:39:32;;;;;;;12.50;7.90;;;;;;;23.31;25.20;100536.86;103053;1251;138756;-70
2023/03/16 09:42:07;;;;;;;12.50;7.90;;;;;;;22.82;25.69;100537.00;103303;1250;99321;-69
2023/03/16 09:44:44;;;;;;;13.20;8.10;;;;;;;22.54;25.80;100531.97;103153;1253;108268;-70
2023/03/16 09:47:15;;;;;;;10.60;7.50;;;;;;;21.62;25.67;100531.77;103076;1253;138458;-69
2023/03/16 09:49:46;;;;;;;15.10;7.30;;;;;;;20.32;26.19;100535.46;103115;1253;111989;-69
2023/03/16 09:52:26;;;;;;;15.20;9.00;;;;;;;19.43;27.16;100542.27;102990;1256;139004;-70
2023/03/16 09:54:59;;;;;;;16.00;8.60;;;;;;;18.64;27.94;100541.71;103203;1253;97793;-69
2023/03/16 09:57:29;;;;;;;13.80;8.00;;;;;;;18.58;28.67;100543.30;103034;1251;137900;-70
2023/03/16 09:59:58;;;;;;;14.70;7.20;;;;;;;18.73;28.93;100549.84;103328;1254;97874;-70
2023/03/16 10:02:44;;;;;;;14.40;6.60;;;;;;;18.99;28.87;100552.08;103199;1253;112201;-70
2023/03/16 10:05:15;;;;;;;12.50;6.20;;;;;;;19.15;28.68;100550.69;103056;1253;138189;-71
2023/03/16 10:07:53;;;;;;;9.40;5.70;;;;;;;19.24;28.76;100552.59;103251;1253;97812;-74
2023/03/16 10:10:37;;;;;;;11.60;5.80;;;;;;;19.61;28.92;100554.88;103398;1254;137666;-73
2023/03/16 10:13:13;;;;;;;10.90;5.30;;;;;;;19.74;28.51;100549.40;103240;1251;97710;-71
2023/03/16 10:15:42;;;;;;;9.00;4.90;;;;;;;20.09;28.37;100545.85;103144;1253;138227;-71
2023/03/16 10:18:15;;;;;;;8.00;4.20;;;;;;;20.69;28.21;100540.88;103227;1250;108868;-70
2023/03/16 10:20:44;;;;;;;7.20;4.20;;;;;;;20.86;27.48;100538.46;103194;1253;97678;-71
2023/03/16 10:23:20;;;;;;;6.90;4.40;;;;;;;20.76;27.49;100543.60;103103;1254;137790;-70
2023/03/16 10:25:49;;;;;;;7.20;4.00;;;;;;;20.73;26.98;100546.27;103699;1251;98243;-72
2023/03/16 10:28:20;;;;;;;10.40;4.80;;;;;;;20.55;26.43;100550.92;103076;1253;137554;-72
2023/03/16 10:30:49;;;;;;;7.10;5.00;;;;;;;20.38;26.57;100548.69;103169;1254;108979;-72
2023/03/16 10:33:24;;;;;;;11.10;4.80;;;;;;;20.20;27.05;100551.45;103245;1252;97719;-72
2023/03/16 10:35:55;;;;;;;12.20;5.50;;;;;;;20.21;26.92;100550.17;103187;1253;107485;-72
2023/03/16 10:38:41;;;;;;;12.50;6.70;;;;;;;19.90;26.97;100557.04;103221;1253;98690;-76
2023/03/16 10:41:21;;;;;;;12.50;6.50;;;;;;;19.69;28.51;100556.09;103161;1253;137777;-71
2023/03/16 10:43:52;;;;;;;13.30;6.10;;;;;;;19.43;27.96;100552.98;103180;1251;108594;-72
2023/03/16 10:46:19;;;;;;;11.00;6.00;;;;;;;19.25;27.72;100553.59;103156;1251;138068;-74
2023/03/16 10:48:58;;;;;;;11.30;6.20;;;;;;;19.08;27.94;100557.36;103519;1253;108771;-73
2023/03/16 10:51:29;;;;;;;13.00;6.20;;;;;;;19.05;28.36;100555.97;103399;1253;138322;-72
2023/03/16 10:54:04;;;;;;;12.50;6.20;;;;;;;18.95;28.11;100558.67;103711;1253;111471;-72
2023/03/16 10:56:35;;;;;;;13.20;6.80;;;;;;;18.84;28.44;100558.67;103476;1248;108307;-71
2023/03/16 10:59:12;;;;;;;13.10;6.10;;;;;;;18.80;28.30;100560.64;103462;1253;138267;-72
2023/03/16 11:01:39;;;;;;;11.50;5.90;;;;;;;18.48;28.50;100556.23;103523;1253;107177;-72
2023/03/16 11:04:16;;;;;;;11.60;5.90;;;;;;;18.07;28.78;100558.30;103444;1251;137987;-73
2023/03/16 11:06:53;;;;;;;13.40;5.80;;;;;;;17.75;28.99;100562.11;103507;1248;110936;-72
2023/03/16 11:09:26;;;;;;;9.50;4.90;;;;;;;17.56;29.11;100563.70;103506;1251;107588;-75
2023/03/16 11:11:54;;;;;;;11.00;5.20;;;;;;;17.20;29.25;100554.95;103522;1253;99209;-76
2023/03/16 11:14:28;;;;;;;9.80;4.40;;;;;;;16.86;29.72;100554.14;103549;1253;107675;-73
2023/03/16 11:17:03;;;;;;;10.50;4.90;;;;;;;16.68;29.98;100556.48;103427;1253;137739;-74
2023/03/16 11:19:31;;;;;;;11.80;4.60;;;;;;;16.44;30.05;100549.66;104540;1250;111206;-73
2023/03/16 11:22:02;;;;;;;11.50;4.40;;;;;;;15.74;30.13;100560.72;103322;1258;138342;-73
2023/03/16 11:24:38;;;;;;;13.20;4.30;;;;;;;15.08;30.74;100566.61;103502;1251;97688;-72
2023/03/16 11:27:15;;;;;;;10.80;5.20;;;;;;;14.50;31.19;100564.44;103480;1254;108569;-73
2023/03/16 11:29:57;;;;;;;13.10;4.50;;;;;;;13.93;31.78;100572.23;103483;1248;137802;-73
2023/03/16 11:32:36;;;;;;;15.00;4.80;;;;;;;13.34;32.39;100571.63;103553;1251;110426;-73
2023/03/16 11:35:12;;;;;;;12.80;5.00;;;;;;;12.79;33.13;100576.44;103339;1251;137944;-78
2023/03/16 11:37:54;;;;;;;11.70;4.90;;;;;;;12.21;33.58;100573.91;103591;1254;97874;-78
2023/03/16 11:40:37;;;;;;;11.10;4.80;;;;;;;11.50;34.12;100581.23;103410;1251;137786;-79
2023/03/16 11:43:19;;;;;;;12.40;5.00;;;;;;;10.88;35.07;100582.86;104465;1253;97599;-79